Time;durP1;ratioP1;P1;durP2;ratioP2;P2;SDS_P1;SDS_P2;PMS_P1;PMS_P2;Temp;Humidity;BMP_temperature;BMP_pressure;BME280_temperature;BME280_humidity;BME280_pressure;Samples;Min_cycle;Max_cycle;Signal;HPM_P1;HPM_P2
2021/10/01 00:02:17;;;;;;;7.00;1.80;;;;;;;7.44;84.33;96998.56;4960677;28;20101;-76
2021/10/01 00:04:43;;;;;;;4.97;1.03;;;;;;;7.43;84.36;96996.91;4954451;28;20039;-76
2021/10/01 00:07:10;;;;;;;4.33;0.90;;;;;;;7.43;84.85;96992.50;4954943;28;20438;-76
2021/10/01 00:09:38;;;;;;;2.63;0.80;;;;;;;7.50;84.39;96998.91;4955138;28;20045;-75
2021/10/01 00:12:06;;;;;;;4.63;1.00;;;;;;;7.48;84.63;97000.00;4954912;28;20058;-76
2021/10/01 00:14:35;;;;;;;3.07;0.90;;;;;;;7.49;84.65;96991.19;4954149;28;20050;-76
2021/10/01 00:17:02;;;;;;;2.83;0.83;;;;;;;7.47;84.76;96999.16;4934976;28;20050;-76
2021/10/01 00:19:30;;;;;;;4.40;0.93;;;;;;;7.47;85.22;96993.94;4937716;28;20031;-76
2021/10/01 00:21:56;;;;;;;4.50;0.73;;;;;;;7.49;85.12;96991.19;4936782;28;21124;-76
2021/10/01 00:24:21;;;;;;;4.37;1.27;;;;;;;7.57;84.65;96980.94;4969623;28;20046;-75
2021/10/01 00:26:48;;;;;;;3.30;1.30;;;;;;;7.54;85.27;96983.81;4947996;28;20026;-76
2021/10/01 00:29:14;;;;;;;3.67;0.80;;;;;;;7.53;85.05;96977.75;4946927;28;20042;-76
2021/10/01 00:31:40;;;;;;;4.47;1.00;;;;;;;7.55;85.21;96967.16;4937103;28;20182;-76
2021/10/01 00:34:06;;;;;;;5.50;1.00;;;;;;;7.54;85.24;96963.72;4938836;28;20100;-75
2021/10/01 00:36:33;;;;;;;4.00;1.20;;;;;;;7.50;85.29;96971.91;4937890;28;20030;-76
2021/10/01 00:38:59;;;;;;;3.93;1.70;;;;;;;7.55;85.27;96964.56;4954027;28;20026;-76
2021/10/01 00:41:26;;;;;;;4.20;1.30;;;;;;;7.57;85.24;96970.47;4952499;28;20054;-76
2021/10/01 00:43:52;;;;;;;3.40;1.37;;;;;;;7.44;86.13;96959.31;4936546;28;20524;-76
2021/10/01 00:46:18;;;;;;;3.10;1.00;;;;;;;7.49;86.03;96960.63;4953348;28;20034;-75
2021/10/01 00:48:44;;;;;;;1.77;0.80;;;;;;;7.42;86.75;96961.25;4937852;28;20186;-76
2021/10/01 00:51:13;;;;;;;3.07;1.00;;;;;;;7.41;86.59;96962.19;4953592;28;20031;-75
2021/10/01 00:53:38;;;;;;;3.40;0.77;;;;;;;7.47;86.20;96961.69;4952781;28;20035;-76
2021/10/01 00:56:04;;;;;;;3.53;1.27;;;;;;;7.41;86.80;96956.94;4948834;28;20025;-76
2021/10/01 00:58:31;;;;;;;4.00;1.17;;;;;;;7.41;86.37;96952.56;4936783;28;20351;-76
2021/10/01 01:01:09;;;;;;;2.80;0.80;;;;;;;7.38;86.67;96952.81;4951894;28;20089;-75
2021/10/01 01:03:48;;;;;;;5.07;1.00;;;;;;;7.37;87.22;96950.28;4932228;28;20145;-76
2021/10/01 01:06:53;;;;;;;3.30;0.70;;;;;;;7.38;87.30;96944.09;4938391;28;20125;-76
2021/10/01 01:09:56;;;;;;;4.97;1.15;;;;;;;7.36;87.12;96933.78;4950431;28;20031;-75
2021/10/01 01:12:40;;;;;;;4.60;1.10;;;;;;;7.37;87.05;96932.81;4948454;28;20125;-76
2021/10/01 01:15:16;;;;;;;2.43;1.07;;;;;;;7.41;86.83;96926.41;4937659;28;20522;-76
2021/10/01 01:17:45;;;;;;;3.10;0.80;;;;;;;7.43;86.77;96928.88;4937603;28;20577;-76
2021/10/01 01:20:14;;;;;;;2.70;0.80;;;;;;;7.41;86.92;96925.53;4953117;28;20468;-75
2021/10/01 01:23:04;;;;;;;7.00;1.10;;;;;;;7.43;86.77;96921.03;4936512;28;20069;-76
2021/10/01 01:26:11;;;;;;;1.43;0.70;;;;;;;7.43;86.43;96918.41;4951296;28;20568;-76
2021/10/01 01:29:32;;;;;;;3.57;1.00;;;;;;;7.43;86.78;96919.25;4934214;28;20105;-75
2021/10/01 01:35:47;;;;;;;6.03;1.20;;;;;;;7.38;87.49;96910.09;4964023;28;20046;-76
2021/10/01 01:38:17;;;;;;;2.20;0.70;;;;;;;7.37;87.32;96909.25;4952517;28;20043;-75
2021/10/01 01:40:49;;;;;;;2.40;1.00;;;;;;;7.37;87.70;96908.44;4934533;28;20500;-77
2021/10/01 01:43:17;;;;;;;2.80;1.00;;;;;;;7.32;87.98;96901.78;4952614;28;20097;-76
2021/10/01 01:45:44;;;;;;;2.13;1.03;;;;;;;7.33;87.76;96895.59;4931399;28;20037;-75
2021/10/01 01:48:11;;;;;;;3.87;1.10;;;;;;;7.41;87.06;96897.63;4951254;28;20058;-76
2021/10/01 01:50:42;;;;;;;7.80;2.03;;;;;;;7.41;87.04;96895.00;4936084;28;20029;-76
2021/10/01 01:53:17;;;;;;;2.13;0.87;;;;;;;7.38;87.17;96887.38;4933345;28;20032;-76
2021/10/01 01:55:46;;;;;;;5.40;1.80;;;;;;;7.50;86.76;96882.94;4936692;28;20035;-76
2021/10/01 01:58:13;;;;;;;3.60;1.13;;;;;;;7.45;86.37;96879.88;4938755;28;20113;-76
2021/10/01 02:01:00;;;;;;;4.53;1.20;;;;;;;7.44;87.17;96878.19;4969427;28;20035;-76
2021/10/01 02:03:27;;;;;;;4.27;1.20;;;;;;;7.47;87.26;96877.94;4946246;28;20037;-78
2021/10/01 02:06:16;;;;;;;5.93;1.10;;;;;;;7.35;87.74;96879.78;4944123;28;20035;-76
2021/10/01 02:08:44;;;;;;;2.33;1.00;;;;;;;7.42;87.41;96882.75;4953124;28;20031;-76
2021/10/01 02:11:11;;;;;;;4.23;1.10;;;;;;;7.43;87.70;96874.75;4954133;28;20117;-76
2021/10/01 02:13:38;;;;;;;3.40;0.80;;;;;;;7.51;87.55;96864.50;4941122;28;20031;-76
2021/10/01 02:16:10;;;;;;;4.47;1.00;;;;;;;7.53;87.61;96874.84;4935831;28;20033;-76
2021/10/01 02:18:39;;;;;;;5.27;1.40;;;;;;;7.50;87.90;96872.47;4940449;28;20455;-76
2021/10/01 02:21:05;;;;;;;4.67;1.33;;;;;;;7.50;88.22;96867.22;4935429;28;20035;-76
2021/10/01 02:23:33;;;;;;;5.10;1.10;;;;;;;7.47;88.15;96857.84;4939621;28;20094;-76
2021/10/01 02:28:54;;;;;;;3.10;1.20;;;;;;;7.50;88.40;96852.34;4952933;28;20039;-77
2021/10/01 02:31:26;;;;;;;3.78;1.23;;;;;;;7.45;88.52;96851.91;4955412;28;20077;-77
2021/10/01 02:34:01;;;;;;;6.17;1.37;;;;;;;7.46;88.63;96850.13;4938648;28;20081;-77
2021/10/01 02:36:26;;;;;;;3.77;1.13;;;;;;;7.48;88.62;96843.00;4938950;28;20130;-77
2021/10/01 02:39:36;;;;;;;6.33;1.47;;;;;;;7.48;88.78;96833.34;4954511;28;20106;-77
2021/10/01 02:42:04;;;;;;;4.23;1.33;;;;;;;7.44;89.57;96834.53;4938301;28;20026;-77
2021/10/01 02:44:32;;;;;;;4.50;1.30;;;;;;;7.38;89.67;96828.97;4939709;28;20023;-76
2021/10/01 02:46:58;;;;;;;4.33;1.90;;;;;;;7.45;89.51;96835.38;4954415;28;20478;-77
2021/10/01 02:49:23;;;;;;;2.03;1.10;;;;;;;7.42;90.11;96835.63;4954941;28;20047;-77
2021/10/01 02:51:57;;;;;;;5.90;1.83;;;;;;;7.40;90.23;96832.31;4952593;28;20097;-77
2021/10/01 02:54:32;;;;;;;6.87;1.80;;;;;;;7.39;90.46;96826.25;4935824;29;20045;-77
2021/10/01 02:57:21;;;;;;;2.83;1.10;;;;;;;7.39;90.59;96825.41;4947191;28;20135;-77
2021/10/01 02:59:53;;;;;;;2.97;1.10;;;;;;;7.38;90.64;96826.34;4938765;28;20046;-77
2021/10/01 03:02:22;;;;;;;5.33;1.40;;;;;;;7.35;90.91;96827.44;4937675;28;20048;-77
2021/10/01 03:04:53;;;;;;;3.87;1.27;;;;;;;7.35;91.10;96818.78;4952524;28;20120;-77
2021/10/01 03:07:21;;;;;;;2.67;1.17;;;;;;;7.30;91.80;96825.19;4943973;28;20035;-77
2021/10/01 03:09:48;;;;;;;7.33;1.73;;;;;;;7.32;91.33;96819.84;4950128;28;20023;-77
2021/10/01 03:12:18;;;;;;;3.80;1.53;;;;;;;7.25;92.13;96816.91;4944096;28;20042;-77
2021/10/01 03:14:45;;;;;;;4.00;1.50;;;;;;;7.24;92.49;96815.25;4951642;28;20046;-77
2021/10/01 03:17:17;;;;;;;4.40;1.47;;;;;;;7.26;91.88;96810.72;4951986;28;20064;-78
2021/10/01 03:19:44;;;;;;;3.77;1.37;;;;;;;7.25;92.83;96810.84;4955703;28;20034;-76
2021/10/01 03:22:10;;;;;;;7.00;1.90;;;;;;;7.26;92.64;96815.94;4956459;28;20512;-77
2021/10/01 03:24:39;;;;;;;4.53;1.90;;;;;;;7.24;92.81;96815.25;4939244;28;20457;-77
2021/10/01 03:27:05;;;;;;;4.87;1.90;;;;;;;7.29;92.63;96820.09;4937789;28;20019;-77
2021/10/01 03:29:31;;;;;;;5.73;1.57;;;;;;;7.24;92.81;96810.00;4955270;28;20481;-77
2021/10/01 03:31:58;;;;;;;4.13;1.77;;;;;;;7.22;93.15;96806.69;4938630;28;20102;-77
2021/10/01 03:34:24;;;;;;;3.37;1.50;;;;;;;7.18;93.49;96812.31;4952351;28;20031;-77
2021/10/01 03:36:57;;;;;;;5.07;1.70;;;;;;;7.21;93.60;96804.19;4955097;28;20073;-77
2021/10/01 03:39:29;;;;;;;7.07;2.00;;;;;;;7.16;94.14;96801.13;4955499;28;20118;-77
2021/10/01 03:41:55;;;;;;;4.87;1.70;;;;;;;7.21;94.05;96796.31;4939798;28;20026;-77
2021/10/01 03:44:21;;;;;;;6.73;1.70;;;;;;;7.19;94.28;96801.69;4938488;28;20528;-77
2021/10/01 03:46:48;;;;;;;5.40;1.63;;;;;;;7.17;94.54;96797.53;4953104;28;20733;-77
2021/10/01 03:49:14;;;;;;;7.67;1.90;;;;;;;7.21;94.37;96802.41;4938210;28;20412;-76
2021/10/01 03:51:39;;;;;;;5.63;2.73;;;;;;;7.21;94.70;96802.41;4935938;28;20610;-77
2021/10/01 03:54:18;;;;;;;5.97;2.10;;;;;;;7.24;94.31;96798.69;4937495;28;20121;-76
2021/10/01 03:56:48;;;;;;;8.43;2.03;;;;;;;7.27;94.29;96794.03;4938130;28;20119;-76
2021/10/01 03:59:14;;;;;;;8.10;2.10;;;;;;;7.20;94.84;96800.72;4939022;28;20131;-77
2021/10/01 04:01:40;;;;;;;5.13;2.40;;;;;;;7.27;94.47;96793.22;4942660;28;20050;-76
2021/10/01 04:04:06;;;;;;;6.90;2.93;;;;;;;7.19;95.54;96785.19;4935757;28;20125;-76
2021/10/01 04:06:31;;;;;;;4.33;2.07;;;;;;;7.16;95.55;96781.00;4954963;28;20034;-77
2021/10/01 04:08:57;;;;;;;4.43;1.90;;;;;;;7.09;96.05;96783.31;4955160;28;20493;-77
2021/10/01 04:11:23;;;;;;;7.80;2.37;;;;;;;7.07;96.46;96782.59;4937522;28;20031;-77
2021/10/01 04:13:49;;;;;;;8.43;2.07;;;;;;;7.10;96.65;96773.66;4943806;28;20367;-76
2021/10/01 04:16:16;;;;;;;7.00;2.70;;;;;;;7.07;96.54;96777.34;4958542;28;20512;-77
2021/10/01 04:18:59;;;;;;;6.77;2.50;;;;;;;7.05;96.95;96778.44;4943873;28;20034;-77
2021/10/01 04:21:24;;;;;;;11.67;2.77;;;;;;;7.13;97.02;96786.50;4951236;28;20093;-76
2021/10/01 04:23:52;;;;;;;5.97;2.37;;;;;;;7.14;96.88;96784.72;4935903;28;20054;-76
2021/10/01 04:26:41;;;;;;;5.17;2.00;;;;;;;7.10;97.33;96781.50;4954413;28;20055;-76
2021/10/01 04:29:06;;;;;;;5.30;2.10;;;;;;;7.12;97.19;96777.00;4938886;28;20043;-77
2021/10/01 04:31:32;;;;;;;4.43;2.23;;;;;;;6.98;98.29;96779.91;4938663;28;20030;-77
2021/10/01 04:33:58;;;;;;;5.17;2.40;;;;;;;6.92;98.57;96777.78;4953996;28;20493;-77
2021/10/01 04:36:26;;;;;;;5.57;2.00;;;;;;;6.81;99.50;96782.09;4953683;28;20053;-76
2021/10/01 04:38:53;;;;;;;5.43;1.93;;;;;;;6.77;99.52;96788.50;4949395;28;20565;-77
2021/10/01 04:41:21;;;;;;;6.93;2.13;;;;;;;6.75;100.00;96779.94;4954536;28;20035;-77
2021/10/01 04:43:47;;;;;;;6.07;2.50;;;;;;;6.63;100.00;96780.91;4966745;28;20450;-77
2021/10/01 04:46:14;;;;;;;7.23;2.23;;;;;;;6.61;100.00;96783.66;4954165;28;20037;-76
2021/10/01 04:48:42;;;;;;;5.50;2.40;;;;;;;6.67;100.00;96787.56;4935915;28;20067;-77
2021/10/01 04:51:11;;;;;;;5.67;2.33;;;;;;;6.59;100.00;96782.13;4954130;28;20393;-77
2021/10/01 04:53:37;;;;;;;7.50;2.77;;;;;;;6.59;100.00;96777.72;4938711;28;20554;-77
2021/10/01 04:56:04;;;;;;;7.10;2.60;;;;;;;6.49;100.00;96781.19;4936976;28;20038;-77
2021/10/01 04:58:29;;;;;;;6.90;2.83;;;;;;;6.43;100.00;96784.25;4969406;28;20027;-77
2021/10/01 05:01:14;;;;;;;7.73;3.77;;;;;;;6.40;100.00;96776.66;4954780;28;20093;-77
2021/10/01 05:04:00;;;;;;;4.97;2.73;;;;;;;6.31;100.00;96778.22;4943097;28;20401;-77
2021/10/01 05:06:49;;;;;;;5.33;2.73;;;;;;;6.29;100.00;96780.94;4890070;29;20037;-77
2021/10/01 05:09:34;;;;;;;5.13;2.47;;;;;;;6.31;100.00;96781.66;4952026;28;20133;-77
2021/10/01 05:12:24;;;;;;;5.63;2.53;;;;;;;6.26;100.00;96786.41;4957065;28;20049;-77
2021/10/01 05:15:55;;;;;;;9.50;2.60;;;;;;;6.27;100.00;96782.00;4955938;28;20106;-78
2021/10/01 05:18:43;;;;;;;7.37;2.63;;;;;;;6.29;100.00;96775.72;4950271;28;20057;-77
2021/10/01 05:21:28;;;;;;;8.40;3.00;;;;;;;6.34;100.00;96778.00;4955822;28;20397;-77
2021/10/01 05:24:04;;;;;;;6.40;2.70;;;;;;;6.34;100.00;96780.59;4937393;28;20141;-77
2021/10/01 05:26:29;;;;;;;5.83;2.40;;;;;;;6.28;100.00;96789.75;4939683;28;20122;-77
2021/10/01 05:32:43;;;;;;;8.57;3.00;;;;;;;6.06;100.00;96789.72;4960071;28;20106;-77
2021/10/01 05:35:12;;;;;;;10.27;3.43;;;;;;;6.06;100.00;96792.34;4952798;28;20624;-78
2021/10/01 05:37:38;;;;;;;8.33;2.87;;;;;;;6.09;100.00;96794.72;4952598;28;20018;-77
2021/10/01 05:40:05;;;;;;;5.90;3.20;;;;;;;6.07;100.00;96792.25;4942422;28;20062;-77
2021/10/01 05:42:32;;;;;;;8.13;3.33;;;;;;;6.18;100.00;96785.34;4936438;28;20042;-77
2021/10/01 05:44:58;;;;;;;7.27;3.47;;;;;;;6.33;100.00;96786.75;4937168;28;20031;-77
2021/10/01 05:47:42;;;;;;;5.97;3.17;;;;;;;6.36;100.00;96784.75;4953891;28;20401;-77
2021/10/01 05:50:44;;;;;;;6.93;3.13;;;;;;;6.47;100.00;96796.13;4944389;29;20043;-77
2021/10/01 05:53:47;;;;;;;6.13;2.93;;;;;;;6.74;100.00;96786.13;4950061;28;20516;-77
2021/10/01 05:56:33;;;;;;;6.10;2.77;;;;;;;6.64;100.00;96789.59;4951965;28;20050;-78
2021/10/01 05:59:23;;;;;;;6.83;3.13;;;;;;;6.73;100.00;96787.06;4940041;28;20453;-78
2021/10/01 06:01:50;;;;;;;7.07;2.97;;;;;;;6.69;100.00;96790.06;4953004;28;20062;-77
2021/10/01 06:04:15;;;;;;;10.77;3.77;;;;;;;6.75;100.00;96787.78;4936977;28;20037;-78
2021/10/01 06:06:41;;;;;;;9.20;4.20;;;;;;;6.75;100.00;96782.56;4952894;28;20039;-78
2021/10/01 06:09:14;;;;;;;8.17;3.30;;;;;;;6.76;100.00;96789.44;4936649;28;20541;-77
2021/10/01 06:11:41;;;;;;;7.75;3.08;;;;;;;7.01;99.70;96785.72;4953113;28;20477;-77
2021/10/01 06:14:10;;;;;;;12.20;3.60;;;;;;;7.38;96.99;96782.72;4951971;28;20550;-77
2021/10/01 06:16:36;;;;;;;8.10;3.53;;;;;;;7.67;94.76;96776.84;4936458;28;20773;-78
2021/10/01 06:19:03;;;;;;;8.57;3.17;;;;;;;7.69;95.35;96775.78;4930790;28;20088;-78
2021/10/01 06:21:30;;;;;;;6.77;3.23;;;;;;;8.02;92.20;96773.91;4937036;28;20043;-79
2021/10/01 06:23:56;;;;;;;6.77;3.20;;;;;;;7.90;94.08;96773.13;4951557;28;20070;-78
2021/10/01 06:26:22;;;;;;;7.53;3.67;;;;;;;8.09;92.21;96769.81;4951594;28;20077;-78
2021/10/01 06:28:48;;;;;;;6.17;3.00;;;;;;;8.45;89.59;96767.63;4953153;28;20037;-78
2021/10/01 06:31:15;;;;;;;9.70;4.10;;;;;;;8.55;90.03;96765.88;4937917;28;20413;-78
2021/10/01 06:33:43;;;;;;;8.97;3.53;;;;;;;8.61;89.36;96770.56;4952692;28;20038;-78
2021/10/01 06:36:20;;;;;;;7.27;2.90;;;;;;;8.38;90.78;96771.72;4937323;29;20579;-78
2021/10/01 06:38:47;;;;;;;8.10;3.80;;;;;;;8.24;92.32;96765.84;4950159;28;20448;-78
2021/10/01 06:41:13;;;;;;;9.23;3.70;;;;;;;8.33;92.03;96766.03;4937226;28;20042;-79
2021/10/01 06:43:40;;;;;;;6.90;3.20;;;;;;;8.47;90.94;96763.91;4952113;28;20041;-78
2021/10/01 06:46:15;;;;;;;7.13;3.67;;;;;;;8.73;89.76;96759.00;4952593;28;20525;-78
2021/10/01 06:49:35;;;;;;;6.27;2.97;;;;;;;9.45;85.98;96757.81;4952440;28;20039;-78
2021/10/01 06:51:46;;;;;;;7.13;3.03;;;;;;;9.82;85.16;96751.00;4956700;28;20047;-79
2021/10/01 08:19:37;;;;;;;6.70;2.37;;;;;;;14.58;64.56;96699.63;4952688;28;20031;-77
2021/10/01 08:22:03;;;;;;;7.37;2.27;;;;;;;14.79;63.77;96696.38;4955508;28;20070;-76
2021/10/01 08:24:36;;;;;;;6.40;2.17;;;;;;;13.95;66.10;96697.00;4940521;28;20062;-78
2021/10/01 08:27:03;;;;;;;4.47;1.90;;;;;;;14.82;64.95;96701.34;4939730;28;20485;-77
2021/10/01 08:29:33;;;;;;;5.47;2.13;;;;;;;14.83;64.03;96692.38;4955861;28;20046;-77
2021/10/01 08:32:03;;;;;;;6.40;2.00;;;;;;;15.65;61.23;96691.78;4955286;28;20068;-77
2021/10/01 08:34:31;;;;;;;8.10;2.20;;;;;;;15.85;60.45;96692.09;4931352;29;20465;-77
2021/10/01 08:36:58;;;;;;;5.77;2.30;;;;;;;15.98;60.68;96696.78;4954437;28;20058;-77
2021/10/01 08:39:27;;;;;;;7.07;2.05;;;;;;;17.00;56.63;96696.91;4953867;28;20042;-77
2021/10/01 08:41:54;;;;;;;6.35;2.30;;;;;;;16.87;56.17;96686.16;4953936;28;20806;-77
2021/10/01 08:44:20;;;;;;;6.88;2.30;;;;;;;17.33;55.74;96675.13;4953814;28;20046;-77
2021/10/01 08:46:49;;;;;;;6.75;2.03;;;;;;;17.06;55.54;96690.81;4952851;28;20090;-77
2021/10/01 08:49:15;;;;;;;10.05;2.95;;;;;;;16.69;57.32;96684.66;4937046;28;20043;-77
2021/10/01 08:51:42;;;;;;;7.93;3.17;;;;;;;17.12;55.54;96683.94;4937950;28;20027;-77
2021/10/01 08:54:14;;;;;;;5.45;2.10;;;;;;;17.47;55.16;96679.59;4938601;28;20038;-77
2021/10/01 08:56:40;;;;;;;8.37;1.97;;;;;;;17.43;55.42;96678.28;4937023;28;20034;-78
2021/10/01 08:59:08;;;;;;;5.55;2.60;;;;;;;18.35;52.60;96659.53;4935778;29;20046;-77
2021/10/01 09:01:34;;;;;;;5.70;2.22;;;;;;;16.90;55.20;96672.47;4954029;28;20485;-77
2021/10/01 09:04:00;;;;;;;5.50;1.83;;;;;;;17.15;54.90;96673.75;4970003;28;20035;-76
2021/10/01 09:06:26;;;;;;;6.65;1.60;;;;;;;17.16;54.31;96667.41;4953812;28;20456;-77
2021/10/01 09:08:53;;;;;;;6.00;1.90;;;;;;;17.10;55.44;96665.53;4937392;28;20117;-77
2021/10/01 09:11:26;;;;;;;4.88;1.63;;;;;;;17.12;54.70;96666.16;4936926;28;20046;-76
2021/10/01 09:13:52;;;;;;;7.63;2.38;;;;;;;17.60;53.91;96653.06;4967227;28;20441;-77
2021/10/01 09:16:21;;;;;;;9.70;3.00;;;;;;;17.35;53.76;96657.16;4952470;28;20064;-76
2021/10/01 09:18:53;;;;;;;4.93;1.70;;;;;;;17.37;53.39;96660.44;4952669;28;20042;-77
2021/10/01 09:21:21;;;;;;;4.10;1.88;;;;;;;17.70;53.28;96651.91;4954114;28;20038;-77
2021/10/01 09:24:00;;;;;;;4.95;1.58;;;;;;;18.01;52.17;96652.38;4953077;28;20608;-76
2021/10/01 09:26:30;;;;;;;5.28;1.80;;;;;;;19.07;50.09;96636.00;4933439;29;20041;-76
2021/10/01 09:29:06;;;;;;;6.90;2.35;;;;;;;18.26;52.06;96639.41;4953315;28;20054;-77
2021/10/01 09:31:32;;;;;;;5.18;1.70;;;;;;;17.98;51.40;96639.47;4937085;28;20054;-77
2021/10/01 09:33:59;;;;;;;8.18;2.28;;;;;;;17.93;52.07;96641.88;4953422;28;20396;-76
2021/10/01 09:36:30;;;;;;;6.57;2.92;;;;;;;18.76;50.08;96637.38;4936999;28;20461;-77
2021/10/01 09:39:01;;;;;;;3.75;1.63;;;;;;;18.66;50.11;96633.41;4950420;28;20042;-77
2021/10/01 09:41:33;;;;;;;4.53;1.55;;;;;;;18.87;49.74;96629.81;4950185;29;20042;-77
2021/10/01 09:44:06;;;;;;;5.97;1.83;;;;;;;19.35;48.73;96632.31;4949966;28;20035;-77
2021/10/01 09:46:45;;;;;;;6.63;1.38;;;;;;;19.20;48.93;96620.00;4933921;28;20908;-77
2021/10/01 09:49:14;;;;;;;2.42;0.98;;;;;;;20.38;46.12;96620.06;4937524;28;20046;-77
2021/10/01 09:51:54;;;;;;;3.92;1.58;;;;;;;19.86;47.22;96613.88;4953932;28;20086;-77
2021/10/01 09:54:22;;;;;;;5.35;1.42;;;;;;;19.53;48.05;96608.53;4951199;28;20035;-78
2021/10/01 09:56:49;;;;;;;3.78;1.27;;;;;;;18.76;50.21;96609.91;4952339;28;20126;-78
2021/10/01 09:59:22;;;;;;;4.72;1.40;;;;;;;18.92;49.00;96606.88;4930313;29;20121;-78
2021/10/01 10:02:11;;;;;;;5.82;1.35;;;;;;;18.47;49.96;96606.50;4947760;28;20037;-78
2021/10/01 10:04:54;;;;;;;3.63;1.25;;;;;;;19.18;49.28;96595.41;4953143;28;20053;-77
2021/10/01 10:07:24;;;;;;;6.13;1.40;;;;;;;18.32;50.73;96598.66;4964425;28;20034;-77
2021/10/01 10:10:03;;;;;;;1.88;0.85;;;;;;;18.77;49.56;96590.22;4935618;28;20038;-78
2021/10/01 10:12:37;;;;;;;5.15;1.73;;;;;;;19.50;49.44;96596.44;4952500;28;20130;-78
2021/10/01 10:15:08;;;;;;;2.80;1.40;;;;;;;19.60;48.77;96581.84;4952589;28;20126;-78
2021/10/01 10:17:49;;;;;;;3.53;0.95;;;;;;;19.31;49.31;96583.91;4934715;28;20474;-78
2021/10/01 10:20:19;;;;;;;4.72;1.73;;;;;;;18.89;49.36;96601.94;4930570;28;20043;-78
2021/10/01 10:22:46;;;;;;;5.85;1.15;;;;;;;19.78;48.19;96584.72;4949459;28;20061;-77
2021/10/01 10:25:11;;;;;;;6.80;1.27;;;;;;;18.70;49.87;96592.03;4935220;28;20556;-77
2021/10/01 10:27:37;;;;;;;3.25;1.30;;;;;;;19.36;48.88;96581.47;4932731;29;20035;-78
2021/10/01 10:30:06;;;;;;;3.22;1.42;;;;;;;19.67;48.25;96583.50;4969867;28;20118;-78
2021/10/01 10:32:33;;;;;;;3.95;1.60;;;;;;;19.02;48.71;96587.81;4970130;28;20548;-78
2021/10/01 10:35:07;;;;;;;3.00;1.30;;;;;;;18.72;49.55;96588.19;4936185;28;20133;-78
2021/10/01 10:37:45;;;;;;;4.43;1.58;;;;;;;18.20;51.63;96578.13;4936468;28;20497;-78
2021/10/01 10:40:19;;;;;;;6.43;1.95;;;;;;;17.98;52.32;96588.91;4957718;28;20553;-77
2021/10/01 10:42:49;;;;;;;8.43;2.10;;;;;;;19.12;50.34;96569.56;4947142;28;20404;-77
2021/10/01 10:45:21;;;;;;;4.95;1.10;;;;;;;19.31;49.45;96562.56;4951528;28;20034;-78
2021/10/01 10:47:58;;;;;;;3.70;1.10;;;;;;;19.10;49.53;96566.28;4934343;28;20482;-77
2021/10/01 10:50:25;;;;;;;2.42;0.82;;;;;;;19.63;48.73;96562.75;4949375;28;20039;-77
2021/10/01 10:53:12;;;;;;;2.88;1.20;;;;;;;19.97;48.01;96554.50;4967169;28;20058;-78
2021/10/01 10:56:04;;;;;;;2.88;1.30;;;;;;;19.97;48.43;96556.34;4947918;28;20054;-78
2021/10/01 10:58:31;;;;;;;2.72;1.45;;;;;;;18.86;49.51;96558.88;4943685;28;20049;-78
2021/10/01 11:01:01;;;;;;;4.20;1.40;;;;;;;19.91;48.04;96546.50;4934684;28;20428;-78
2021/10/01 11:03:33;;;;;;;2.90;1.05;;;;;;;18.99;48.78;96556.25;4935961;28;20070;-77
2021/10/01 11:06:08;;;;;;;3.22;1.20;;;;;;;19.46;48.61;96554.38;4956562;28;20035;-78
2021/10/01 11:08:38;;;;;;;2.00;1.00;;;;;;;19.72;48.50;96543.69;4937961;29;20039;-79
2021/10/01 11:11:25;;;;;;;1.92;0.85;;;;;;;19.10;49.38;96544.13;4951137;28;20108;-78
2021/10/01 11:13:50;;;;;;;2.42;1.23;;;;;;;19.75;48.47;96542.44;4953593;28;20084;-78
2021/10/01 11:16:18;;;;;;;5.47;1.10;;;;;;;19.13;49.38;96535.72;4952622;28;20104;-77
2021/10/01 11:19:01;;;;;;;2.88;0.90;;;;;;;20.12;46.99;96532.03;4939051;28;20038;-78
2021/10/01 11:21:30;;;;;;;;;;;;;;;18.52;50.88;96526.84;4942083;29;20517;-78
2021/10/01 11:24:10;;;;;;;5.15;1.33;;;;;;;19.20;49.99;96524.03;4951747;28;19917;-78
2021/10/01 11:26:44;;;;;;;4.05;1.00;;;;;;;19.35;49.34;96515.84;4952635;28;20046;-78
2021/10/01 11:29:32;;;;;;;4.80;1.20;;;;;;;18.49;51.42;96516.59;4929270;28;20035;-77
2021/10/01 11:31:59;;;;;;;3.75;1.00;;;;;;;20.11;47.69;96517.06;4952027;28;20108;-78
2021/10/01 11:34:54;;;;;;;3.75;1.10;;;;;;;21.28;45.94;96507.66;4952126;28;20027;-78
2021/10/01 11:37:36;;;;;;;4.22;1.25;;;;;;;21.53;44.15;96494.28;4946239;28;20505;-78
2021/10/01 11:40:02;;;;;;;3.75;1.30;;;;;;;20.93;44.97;96497.47;4938784;28;20035;-78
2021/10/01 11:42:34;;;;;;;3.53;1.30;;;;;;;21.45;44.00;96494.56;4955248;28;20039;-78
2021/10/01 11:45:11;;;;;;;3.10;1.20;;;;;;;21.02;45.03;96494.50;4953649;28;20126;-78
2021/10/01 11:47:38;;;;;;;4.38;1.20;;;;;;;21.32;44.40;96494.66;4938682;28;20035;-78
2021/10/01 11:50:05;;;;;;;4.57;1.08;;;;;;;20.82;46.00;96489.31;4955197;28;20066;-78
2021/10/01 11:52:41;;;;;;;4.70;1.30;;;;;;;20.78;45.96;96491.63;4954137;28;20038;-78
2021/10/01 11:55:14;;;;;;;7.72;1.40;;;;;;;21.37;43.30;96484.97;4954929;28;20065;-78
2021/10/01 11:57:43;;;;;;;3.00;1.27;;;;;;;21.63;43.28;96483.88;4955430;28;20042;-78
2021/10/01 12:00:22;;;;;;;4.93;1.10;;;;;;;22.24;41.80;96481.31;4966734;28;20039;-78
2021/10/01 12:02:53;;;;;;;5.00;1.65;;;;;;;22.72;40.08;96469.69;4939017;28;20045;-78
2021/10/01 12:05:33;;;;;;;2.00;0.90;;;;;;;22.05;42.16;96472.47;4930975;28;20030;-78
2021/10/01 12:08:03;;;;;;;2.78;1.33;;;;;;;22.13;42.02;96464.09;4942559;28;20031;-78
2021/10/01 12:10:46;;;;;;;1.95;1.13;;;;;;;21.24;42.50;96468.22;4953155;28;20039;-79
2021/10/01 12:13:13;;;;;;;2.30;1.08;;;;;;;21.04;43.52;96465.72;4952340;28;20069;-79
2021/10/01 12:15:48;;;;;;;4.45;1.33;;;;;;;21.88;42.02;96461.56;4940002;28;20023;-78
2021/10/01 12:18:37;;;;;;;4.95;1.30;;;;;;;22.43;39.76;96452.59;4963792;28;20130;-79
2021/10/01 12:21:28;;;;;;;3.47;1.50;;;;;;;22.32;40.70;96446.16;4955163;28;20041;-79
2021/10/01 12:23:59;;;;;;;5.15;1.13;;;;;;;21.81;41.19;96450.94;4952222;28;20038;-78
2021/10/01 12:26:25;;;;;;;2.10;1.30;;;;;;;21.92;40.74;96451.22;4937248;28;20038;-78
2021/10/01 12:29:13;;;;;;;8.70;1.98;;;;;;;21.40;42.98;96444.41;4937439;28;20395;-78
2021/10/01 12:31:52;;;;;;;4.55;1.40;;;;;;;21.83;41.88;96442.66;4951896;28;20043;-77
2021/10/01 12:34:20;;;;;;;3.15;1.00;;;;;;;21.95;42.50;96437.38;4947962;28;20058;-78
2021/10/01 12:36:48;;;;;;;4.50;1.20;;;;;;;22.47;41.53;96427.81;4939334;28;20034;-79
2021/10/01 12:39:16;;;;;;;4.25;1.70;;;;;;;23.22;40.34;96427.19;4936326;28;20410;-78
2021/10/01 12:41:42;;;;;;;4.68;1.30;;;;;;;22.04;41.26;96428.00;4951366;28;20031;-79
2021/10/01 12:44:14;;;;;;;5.38;1.83;;;;;;;21.81;41.74;96431.38;4953244;28;20125;-78
2021/10/01 12:46:49;;;;;;;4.53;1.10;;;;;;;21.98;41.52;96424.34;4940015;28;20099;-78
2021/10/01 12:49:30;;;;;;;6.05;1.73;;;;;;;22.30;41.10;96424.97;4967383;28;20470;-78
2021/10/01 12:52:03;;;;;;;4.47;1.85;;;;;;;22.03;41.53;96429.84;4967772;28;20045;-78
2021/10/01 12:54:31;;;;;;;3.40;1.10;;;;;;;21.99;41.71;96420.63;4949614;28;20046;-78
2021/10/01 12:57:08;;;;;;;6.38;1.92;;;;;;;21.23;42.68;96427.28;4935436;28;20031;-78
2021/10/01 13:00:03;;;;;;;3.33;1.33;;;;;;;21.95;42.21;96419.44;4939195;28;20066;-78
2021/10/01 13:02:39;;;;;;;4.72;1.48;;;;;;;21.98;41.87;96416.31;4954150;28;20042;-78
2021/10/01 13:05:24;;;;;;;4.70;1.88;;;;;;;21.97;42.09;96417.38;4950727;28;20486;-78
2021/10/01 13:07:51;;;;;;;5.03;1.40;;;;;;;21.60;43.37;96416.59;4956891;28;20026;-78
2021/10/01 13:10:42;;;;;;;3.50;1.52;;;;;;;22.10;42.67;96409.16;4971571;28;20100;-78
2021/10/01 13:13:18;;;;;;;3.85;1.63;;;;;;;21.31;44.26;96408.25;4933098;28;20157;-77
2021/10/01 13:15:51;;;;;;;3.95;1.60;;;;;;;21.78;43.78;96407.72;4954160;28;20113;-77
2021/10/01 13:18:28;;;;;;;2.92;1.30;;;;;;;21.33;45.75;96403.50;4953514;28;20410;-78
2021/10/01 13:21:16;;;;;;;6.22;1.65;;;;;;;21.37;44.77;96391.34;4970508;28;20037;-78
2021/10/01 13:23:46;;;;;;;5.78;1.70;;;;;;;21.76;45.03;96388.38;4948088;28;20038;-78
2021/10/01 13:26:15;;;;;;;5.43;1.40;;;;;;;21.35;44.83;96388.06;4937334;28;20034;-77
2021/10/01 13:28:49;;;;;;;3.25;1.65;;;;;;;21.21;45.79;96380.38;4938801;28;20613;-77
2021/10/01 13:31:16;;;;;;;4.53;1.65;;;;;;;21.34;45.38;96383.75;4954646;28;20042;-77
2021/10/01 13:33:43;;;;;;;5.18;1.90;;;;;;;21.57;45.14;96383.06;4934005;28;20031;-77
2021/10/01 13:36:08;;;;;;;5.18;1.92;;;;;;;21.63;44.82;96378.69;4946738;28;20047;-77
2021/10/01 13:38:41;;;;;;;6.10;1.20;;;;;;;21.44;45.41;96374.41;4952977;28;20089;-77